Time;durP1;ratioP1;P1;durP2;ratioP2;P2;SDS_P1;SDS_P2;PMS_P1;PMS_P2;Temp;Humidity;BMP_temperature;BMP_pressure;BME280_temperature;BME280_humidity;BME280_pressure;Samples;Min_cycle;Max_cycle;Signal;HPM_P1;HPM_P2
2022/07/20 00:00:38;;;;;;;0.98;0.45;;;;;;;-145.06;100.00;60892.56;6068460;22;20003;-91
2022/07/20 00:03:18;;;;;;;1.27;0.45;;;;;;;-145.06;100.00;60892.56;6068115;22;20011;-91
2022/07/20 00:05:57;;;;;;;;;;;;;;;-145.06;100.00;60892.56;6067464;22;20003;-93
2022/07/20 00:11:34;;;;;;;0.75;0.40;;;;;;;-145.06;100.00;60892.56;6101198;22;20003;-93
2022/07/20 00:14:13;;;;;;;0.50;0.30;;;;;;;-145.06;100.00;60892.56;6069012;22;20379;-92
2022/07/20 00:16:52;;;;;;;1.38;0.63;;;;;;;-145.06;100.00;60892.56;6068921;22;20007;-92
2022/07/20 00:19:31;;;;;;;0.75;0.55;;;;;;;-145.06;100.00;60892.56;6068764;22;20082;-92
2022/07/20 00:22:10;;;;;;;0.43;0.40;;;;;;;-145.06;100.00;60892.56;6068532;22;20034;-91
2022/07/20 00:24:49;;;;;;;0.90;0.50;;;;;;;-145.06;100.00;60892.56;6067656;22;20007;-92
2022/07/20 00:27:31;;;;;;;0.52;0.43;;;;;;;-145.06;100.00;60892.56;6101248;22;20011;-92
2022/07/20 00:30:11;;;;;;;0.50;0.40;;;;;;;-145.06;100.00;60892.56;6101614;22;20003;-90
2022/07/20 00:32:50;;;;;;;0.50;0.40;;;;;;;-145.06;100.00;60892.56;6101438;22;20003;-93
2022/07/20 00:35:29;;;;;;;0.70;0.50;;;;;;;-145.06;100.00;60892.56;6068596;22;19999;-91
2022/07/20 00:38:08;;;;;;;0.90;0.60;;;;;;;-145.06;100.00;60892.56;6068742;22;20007;-94
2022/07/20 00:40:47;;;;;;;0.68;0.45;;;;;;;-145.06;100.00;60892.56;6068421;22;20000;-93
2022/07/20 00:43:26;;;;;;;0.40;0.35;;;;;;;-145.06;100.00;60892.56;6068794;22;20008;-93
2022/07/20 00:46:05;;;;;;;1.52;0.38;;;;;;;-145.06;100.00;60892.56;6068448;22;20124;-94
2022/07/20 00:48:44;;;;;;;0.75;0.30;;;;;;;-145.06;100.00;60892.56;6068573;22;20011;-92
2022/07/20 00:51:24;;;;;;;0.65;0.38;;;;;;;-145.06;100.00;60892.56;6069341;22;20255;-92
2022/07/20 00:54:07;;;;;;;;;;;;;;;-145.06;100.00;60892.56;6068697;22;20042;-92
2022/07/20 00:56:46;;;;;;;0.38;0.35;;;;;;;-145.06;100.00;60892.56;6068201;22;19899;-93
2022/07/20 00:59:25;;;;;;;0.47;0.40;;;;;;;-145.06;100.00;60892.56;6068943;22;20035;-92
2022/07/20 01:02:05;;;;;;;0.50;0.40;;;;;;;-145.06;100.00;60892.56;6068535;22;19999;-93
2022/07/20 01:04:43;;;;;;;0.70;0.38;;;;;;;-145.06;100.00;60892.56;6101751;22;20308;-92
2022/07/20 01:07:25;;;;;;;1.27;0.40;;;;;;;-145.06;100.00;60892.56;6068089;22;20007;-92
2022/07/20 01:10:04;;;;;;;0.40;0.40;;;;;;;-145.06;100.00;60892.56;6069683;22;20003;-93
2022/07/20 01:12:46;;;;;;;0.50;0.40;;;;;;;-145.06;100.00;60892.56;6068955;22;20002;-92
2022/07/20 01:15:25;;;;;;;0.50;0.50;;;;;;;-145.06;100.00;60892.56;6069017;22;20140;-93
2022/07/20 01:18:04;;;;;;;0.80;0.40;;;;;;;-145.06;100.00;60892.56;6069037;22;20035;-93
2022/07/20 01:20:46;;;;;;;0.98;0.60;;;;;;;-145.06;100.00;60892.56;6069595;22;19996;-93
2022/07/20 01:23:26;;;;;;;2.75;0.70;;;;;;;-145.06;100.00;60892.56;6069546;22;20011;-92
2022/07/20 01:26:05;;;;;;;0.47;0.47;;;;;;;-145.06;100.00;60892.56;6102721;22;19999;-92
2022/07/20 01:28:44;;;;;;;0.50;0.43;;;;;;;-145.06;100.00;60892.56;6068829;22;20299;-92
2022/07/20 01:31:23;;;;;;;0.50;0.40;;;;;;;-145.06;100.00;60892.56;6068856;22;20018;-91
2022/07/20 01:34:03;;;;;;;0.73;0.50;;;;;;;-145.06;100.00;60892.56;6069232;22;20011;-92
2022/07/20 01:36:49;;;;;;;;;;;;;;;-145.06;100.00;60892.56;6069566;22;20003;-91
2022/07/20 01:39:28;;;;;;;1.55;0.50;;;;;;;-145.06;100.00;60892.56;6069066;22;19906;-92
2022/07/20 01:42:07;;;;;;;1.00;0.40;;;;;;;-145.06;100.00;60892.56;6068482;22;20418;-93
2022/07/20 01:44:46;;;;;;;0.50;0.40;;;;;;;-145.06;100.00;60892.56;6068812;22;20011;-92
2022/07/20 01:47:25;;;;;;;;;;;;;;;-145.06;100.00;60892.56;6069917;22;20311;-92
2022/07/20 01:50:05;;;;;;;1.50;0.60;;;;;;;-145.06;100.00;60892.56;6069282;22;19902;-93
2022/07/20 01:52:44;;;;;;;0.43;0.40;;;;;;;-145.06;100.00;60892.56;6068002;22;20003;-92
2022/07/20 01:55:23;;;;;;;0.60;0.40;;;;;;;-145.06;100.00;60892.56;6068510;22;20082;-92
2022/07/20 01:58:02;;;;;;;0.75;0.50;;;;;;;-145.06;100.00;60892.56;6068488;22;20007;-92
2022/07/20 02:00:41;;;;;;;0.40;0.30;;;;;;;-145.06;100.00;60892.56;6068409;22;19999;-91
2022/07/20 02:03:20;;;;;;;1.02;0.35;;;;;;;-145.06;100.00;60892.56;6067742;22;20015;-93
2022/07/20 02:05:59;;;;;;;0.88;0.50;;;;;;;-145.06;100.00;60892.56;6068029;22;20007;-92
2022/07/20 02:08:39;;;;;;;0.55;0.40;;;;;;;-145.06;100.00;60892.56;6068692;22;20007;-91
2022/07/20 02:11:17;;;;;;;0.65;0.35;;;;;;;-145.06;100.00;60892.56;6068420;22;20014;-92
2022/07/20 02:13:56;;;;;;;0.60;0.30;;;;;;;-145.06;100.00;60892.56;6068540;22;20422;-92
2022/07/20 02:16:35;;;;;;;0.60;0.40;;;;;;;-145.06;100.00;60892.56;6069364;22;20003;-93
2022/07/20 02:19:14;;;;;;;0.50;0.40;;;;;;;-145.06;100.00;60892.56;6069163;22;20007;-92
2022/07/20 02:21:53;;;;;;;0.55;0.47;;;;;;;-145.06;100.00;60892.56;6082936;22;20007;-93
2022/07/20 02:24:32;;;;;;;0.40;0.40;;;;;;;-145.06;100.00;60892.56;6090859;22;20007;-93
2022/07/20 02:27:13;;;;;;;1.25;0.40;;;;;;;-145.06;100.00;60892.56;6084378;22;20007;-92
2022/07/20 02:29:53;;;;;;;1.05;0.40;;;;;;;-145.06;100.00;60892.56;6068526;22;20003;-92
2022/07/20 02:32:32;;;;;;;0.73;0.43;;;;;;;-145.06;100.00;60892.56;6067692;22;20472;-91
2022/07/20 02:35:11;;;;;;;1.35;0.50;;;;;;;-145.06;100.00;60892.56;6068125;22;20003;-92
2022/07/20 02:37:49;;;;;;;0.70;0.50;;;;;;;-145.06;100.00;60892.56;6067686;22;20007;-92
2022/07/20 02:40:28;;;;;;;1.20;0.65;;;;;;;-145.06;100.00;60892.56;6068053;22;20437;-92
2022/07/20 02:43:07;;;;;;;2.45;1.05;;;;;;;-145.06;100.00;60892.56;6066532;22;20003;-92
2022/07/20 02:45:46;;;;;;;1.20;0.70;;;;;;;-145.06;100.00;60892.56;6067739;22;20425;-92
2022/07/20 02:48:25;;;;;;;1.27;0.63;;;;;;;-145.06;100.00;60892.56;6066892;22;20008;-93
2022/07/20 02:51:05;;;;;;;0.70;0.60;;;;;;;-145.06;100.00;60892.56;6067397;22;20055;-92
2022/07/20 02:53:44;;;;;;;;;;;;;;;-145.06;100.00;60892.56;6068863;22;20710;-92
2022/07/20 02:56:23;;;;;;;2.15;0.70;;;;;;;-145.06;100.00;60892.56;6069028;22;19914;-92
2022/07/20 02:59:02;;;;;;;0.90;0.43;;;;;;;-145.06;100.00;60892.56;6069017;22;20003;-93
2022/07/20 03:01:41;;;;;;;2.45;0.57;;;;;;;-145.06;100.00;60892.56;6069105;22;20003;-91
2022/07/20 03:04:20;;;;;;;0.70;0.45;;;;;;;-145.06;100.00;60892.56;6068596;22;20085;-92
2022/07/20 03:06:59;;;;;;;0.80;0.57;;;;;;;-145.06;100.00;60892.56;6068846;22;20007;-92
2022/07/20 03:09:38;;;;;;;1.92;0.50;;;;;;;-145.06;100.00;60892.56;6069318;22;20319;-93
2022/07/20 03:12:17;;;;;;;0.50;0.50;;;;;;;-145.06;100.00;60892.56;6068778;22;20003;-91
2022/07/20 03:14:56;;;;;;;1.67;0.40;;;;;;;-145.06;100.00;60892.56;6068172;22;20003;-91
2022/07/20 03:17:46;;;;;;;2.45;0.70;;;;;;;-145.06;100.00;60892.56;6068929;22;20003;-93
2022/07/20 03:20:28;;;;;;;1.13;0.57;;;;;;;-145.06;100.00;60892.56;6068126;22;20433;-93
2022/07/20 03:23:07;;;;;;;2.40;0.73;;;;;;;-145.06;100.00;60892.56;6101453;22;20007;-93
2022/07/20 03:25:46;;;;;;;0.65;0.47;;;;;;;-145.06;100.00;60892.56;6068024;22;20003;-91
2022/07/20 03:28:24;;;;;;;2.15;0.70;;;;;;;-145.06;100.00;60892.56;6068894;22;20011;-94
2022/07/20 03:31:04;;;;;;;1.10;0.70;;;;;;;-145.06;100.00;60892.56;6067209;22;20358;-92
2022/07/20 03:33:43;;;;;;;1.23;0.77;;;;;;;-145.06;100.00;60892.56;6068636;22;20007;-91
2022/07/20 03:36:22;;;;;;;0.70;0.60;;;;;;;-145.06;100.00;60892.56;6068294;22;20449;-92
2022/07/20 03:39:01;;;;;;;1.88;0.90;;;;;;;-145.06;100.00;60892.56;6068123;22;20003;-91
2022/07/20 03:41:41;;;;;;;3.15;0.60;;;;;;;-145.06;100.00;60892.56;6068435;22;20007;-91
2022/07/20 03:44:20;;;;;;;1.65;0.85;;;;;;;-145.06;100.00;60892.56;6067662;22;20015;-91
2022/07/20 03:46:59;;;;;;;3.30;1.60;;;;;;;-145.06;100.00;60892.56;6067989;22;20007;-92
2022/07/20 03:49:38;;;;;;;1.92;1.20;;;;;;;-145.06;100.00;60892.56;6068451;22;20003;-92
2022/07/20 03:52:18;;;;;;;2.10;1.40;;;;;;;-145.06;100.00;60892.56;6067265;22;20586;-91
2022/07/20 03:54:57;;;;;;;4.32;1.42;;;;;;;-145.06;100.00;60892.56;6067294;22;20370;-91
2022/07/20 03:57:36;;;;;;;2.00;1.27;;;;;;;-145.06;100.00;60892.56;6067907;22;20003;-92
2022/07/20 04:00:16;;;;;;;1.40;1.30;;;;;;;-145.06;100.00;60892.56;6067194;22;20007;-92
2022/07/20 04:02:55;;;;;;;1.95;1.13;;;;;;;-145.06;100.00;60892.56;6067275;22;20035;-91
2022/07/20 04:05:34;;;;;;;1.92;1.50;;;;;;;-145.06;100.00;60892.56;6067103;22;20007;-92
2022/07/20 04:08:13;;;;;;;2.67;1.80;;;;;;;-145.06;100.00;60892.56;6067230;22;20342;-92
2022/07/20 04:10:52;;;;;;;3.08;2.30;;;;;;;-145.06;100.00;60892.56;6066778;22;20426;-92
2022/07/20 04:13:31;;;;;;;3.13;2.05;;;;;;;-145.06;100.00;60892.56;6066268;22;20011;-92
2022/07/20 04:16:10;;;;;;;3.58;2.28;;;;;;;-145.06;100.00;60892.56;6066807;22;20003;-92
2022/07/20 04:18:49;;;;;;;2.97;2.45;;;;;;;-145.06;100.00;60892.56;6067353;22;20473;-91
2022/07/20 04:21:28;;;;;;;;;;;;;;;-145.06;100.00;60892.56;6067112;22;20016;-91
2022/07/20 04:24:07;;;;;;;3.90;2.38;;;;;;;-145.06;100.00;60892.56;6066374;22;20318;-91
2022/07/20 04:26:46;;;;;;;3.35;2.33;;;;;;;-145.06;100.00;60892.56;6066849;22;20003;-91
2022/07/20 04:29:25;;;;;;;3.80;2.40;;;;;;;-145.06;100.00;60892.56;6100289;22;20007;-92
2022/07/20 04:32:05;;;;;;;;;;;;;;;-145.06;100.00;60892.56;6067803;22;20003;-92
2022/07/20 04:34:44;;;;;;;;;;;;;;;-145.06;100.00;60892.56;6067052;22;19903;-90
2022/07/20 04:37:23;;;;;;;4.93;3.22;;;;;;;-145.06;100.00;60892.56;6066550;22;19903;-92
2022/07/20 04:40:04;;;;;;;6.53;3.75;;;;;;;-145.06;100.00;60892.56;6066695;22;20015;-91
2022/07/20 04:42:43;;;;;;;6.28;3.45;;;;;;;-145.06;100.00;60892.56;6066479;22;20011;-91
2022/07/20 04:45:22;;;;;;;4.75;3.58;;;;;;;-145.06;100.00;60892.56;6066637;22;20314;-90
2022/07/20 04:48:01;;;;;;;4.72;3.72;;;;;;;-145.06;100.00;60892.56;6066308;22;20007;-92
2022/07/20 04:50:40;;;;;;;4.10;3.22;;;;;;;-145.06;100.00;60892.56;6066720;22;20007;-91
2022/07/20 04:53:18;;;;;;;3.72;3.08;;;;;;;-145.06;100.00;60892.56;6066597;22;20003;-90
2022/07/20 04:55:57;;;;;;;4.72;3.75;;;;;;;-145.06;100.00;60892.56;6066205;22;20011;-90
2022/07/20 04:58:36;;;;;;;5.95;4.28;;;;;;;-145.06;100.00;60892.56;6066420;22;20003;-92
2022/07/20 05:01:16;;;;;;;5.68;3.70;;;;;;;-145.06;100.00;60892.56;6065807;22;20003;-91
2022/07/20 05:03:55;;;;;;;6.30;4.25;;;;;;;-145.06;100.00;60892.56;6065967;22;20007;-92
2022/07/20 05:06:34;;;;;;;6.38;4.80;;;;;;;-145.06;100.00;60892.56;6065465;22;20003;-91
2022/07/20 05:09:13;;;;;;;8.50;4.85;;;;;;;-145.06;100.00;60892.56;6066127;22;20003;-90
2022/07/20 05:11:52;;;;;;;8.23;5.60;;;;;;;-145.06;100.00;60892.56;6065720;22;20003;-91
2022/07/20 05:14:31;;;;;;;6.97;5.22;;;;;;;-145.06;100.00;60892.56;6065880;22;20003;-92
2022/07/20 05:17:10;;;;;;;7.32;5.57;;;;;;;-145.06;100.00;60892.56;6098885;22;20505;-91
2022/07/20 05:19:49;;;;;;;7.43;5.78;;;;;;;-145.06;100.00;60892.56;6066899;22;20011;-92
2022/07/20 05:22:28;;;;;;;6.63;5.47;;;;;;;-145.06;100.00;60892.56;6065854;22;20307;-91
2022/07/20 05:25:07;;;;;;;6.43;4.85;;;;;;;-145.06;100.00;60892.56;6098019;22;20003;-91
2022/07/20 05:27:46;;;;;;;;;;;;;;;-145.06;100.00;60892.56;6065943;22;20003;-91
2022/07/20 05:30:25;;;;;;;5.63;4.60;;;;;;;-145.06;100.00;60892.56;6065491;22;19977;-92
2022/07/20 05:33:04;;;;;;;5.25;4.00;;;;;;;-145.06;100.00;60892.56;6065376;22;20426;-90
2022/07/20 05:35:44;;;;;;;5.82;4.15;;;;;;;-145.06;100.00;60892.56;6065710;22;20007;-91
2022/07/20 05:38:23;;;;;;;5.10;4.10;;;;;;;-145.06;100.00;60892.56;6065081;22;20007;-91
2022/07/20 05:41:03;;;;;;;6.15;3.97;;;;;;;-145.06;100.00;60892.56;6065572;22;19999;-92
2022/07/20 05:43:42;;;;;;;6.13;4.25;;;;;;;-145.06;100.00;60892.56;6065313;22;20007;-91
2022/07/20 05:46:21;;;;;;;5.35;4.05;;;;;;;-145.06;100.00;60892.56;6065819;22;20007;-92
2022/07/20 05:49:00;;;;;;;7.03;3.80;;;;;;;-145.06;100.00;60892.56;6066063;22;20307;-92
2022/07/20 05:51:39;;;;;;;5.07;3.60;;;;;;;-145.06;100.00;60892.56;6065625;22;20425;-92
2022/07/20 05:54:18;;;;;;;4.70;3.85;;;;;;;-145.06;100.00;60892.56;6065262;22;20011;-92
2022/07/20 05:56:57;;;;;;;5.22;3.92;;;;;;;-145.06;100.00;60892.56;6064919;22;20007;-92
2022/07/20 05:59:36;;;;;;;5.15;3.60;;;;;;;-145.06;100.00;60892.56;6065780;22;20033;-92
2022/07/20 06:02:15;;;;;;;4.88;3.72;;;;;;;-145.06;100.00;60892.56;6065912;22;20007;-91
2022/07/20 06:04:54;;;;;;;5.90;4.40;;;;;;;-145.06;100.00;60892.56;6100056;22;20425;-91
2022/07/20 06:07:33;;;;;;;6.25;4.60;;;;;;;-145.06;100.00;60892.56;6066658;22;20115;-92
2022/07/20 06:10:12;;;;;;;5.53;4.20;;;;;;;-145.06;100.00;60892.56;6068626;22;20007;-91
2022/07/20 06:12:52;;;;;;;3.90;3.50;;;;;;;-145.06;100.00;60892.56;6090066;22;19999;-93
2022/07/20 06:15:31;;;;;;;5.78;4.18;;;;;;;-145.06;100.00;60892.56;6090117;22;20007;-93
2022/07/20 06:18:10;;;;;;;5.82;4.43;;;;;;;-145.06;100.00;60892.56;6065836;22;20003;-91
2022/07/20 06:20:49;;;;;;;4.75;3.70;;;;;;;-145.06;100.00;60892.56;6066267;22;20086;-93
2022/07/20 06:23:28;;;;;;;4.97;3.20;;;;;;;-145.06;100.00;60892.56;6065672;22;20007;-91
2022/07/20 06:26:07;;;;;;;4.43;3.47;;;;;;;-145.06;100.00;60892.56;6065124;22;20031;-92
2022/07/20 06:28:46;;;;;;;;;;;;;;;-145.06;100.00;60892.56;6067947;22;20082;-91
2022/07/20 06:31:26;;;;;;;5.75;3.55;;;;;;;-145.06;100.00;60892.56;6067496;22;19938;-91
2022/07/20 06:34:06;;;;;;;4.22;3.42;;;;;;;-145.06;100.00;60892.56;6067435;22;20011;-90
2022/07/20 06:36:46;;;;;;;5.78;3.25;;;;;;;-145.06;100.00;60892.56;6067738;22;20008;-92
2022/07/20 06:39:25;;;;;;;4.20;3.38;;;;;;;-145.06;100.00;60892.56;6066943;22;20003;-91
2022/07/20 06:42:04;;;;;;;4.30;3.65;;;;;;;-145.06;100.00;60892.56;6065217;22;20359;-91
2022/07/20 06:44:44;;;;;;;4.65;3.67;;;;;;;-145.06;100.00;60892.56;6066180;22;20094;-91
2022/07/20 06:47:23;;;;;;;5.78;4.38;;;;;;;-145.06;100.00;60892.56;6064736;22;20035;-92
2022/07/20 06:50:17;;;;;;;5.63;4.22;;;;;;;-145.06;100.00;60892.56;6068193;22;20495;-90
2022/07/20 06:52:56;;;;;;;4.90;3.83;;;;;;;-145.06;100.00;60892.56;6065948;22;19999;-90
2022/07/20 06:55:36;;;;;;;5.95;4.15;;;;;;;-145.06;100.00;60892.56;6066008;22;20366;-90
2022/07/20 06:59:00;;;;;;;;;;;;;;;;;;;;;
2022/07/20 07:01:39;;;;;;;5.43;4.55;;;;;;;-145.06;100.00;60892.56;6004237;23;20004;-92
2022/07/20 07:04:19;;;;;;;5.93;4.18;;;;;;;-145.06;100.00;60892.56;6011061;22;20007;-92
2022/07/20 07:06:58;;;;;;;;;;;;;;;-145.06;100.00;60892.56;6064953;22;20003;-93
2022/07/20 07:09:37;;;;;;;7.18;4.10;;;;;;;-145.06;100.00;60892.56;6063584;22;19902;-90
2022/07/20 07:12:21;;;;;;;4.88;4.00;;;;;;;-145.06;100.00;60892.56;6066380;22;20003;-90
2022/07/20 07:22:47;;;;;;;7.28;4.20;;;;;;;-145.06;100.00;60892.56;6011270;23;20005;-93
2022/07/20 07:25:29;;;;;;;7.28;4.55;;;;;;;-145.06;100.00;60892.56;6010600;23;20511;-90
2022/07/20 07:28:10;;;;;;;5.10;4.10;;;;;;;-145.06;100.00;60892.56;5982996;22;20005;-91
2022/07/20 07:30:50;;;;;;;5.65;4.10;;;;;;;-145.06;100.00;60892.56;6071312;22;20003;-92
2022/07/20 07:33:29;;;;;;;5.93;4.10;;;;;;;-145.06;100.00;60892.56;6069027;22;20011;-92
2022/07/20 07:36:08;;;;;;;4.63;4.03;;;;;;;-145.06;100.00;60892.56;6070906;22;20007;-92
2022/07/20 07:38:47;;;;;;;6.07;4.40;;;;;;;-145.06;100.00;60892.56;6070772;22;19999;-89
2022/07/20 07:41:26;;;;;;;5.50;4.07;;;;;;;-145.06;100.00;60892.56;6066501;22;20086;-91
2022/07/20 07:44:06;;;;;;;5.25;4.20;;;;;;;-145.06;100.00;60892.56;6065685;22;20007;-90
2022/07/20 07:46:45;;;;;;;4.15;3.17;;;;;;;-145.06;100.00;60892.56;6068047;22;20007;-90
2022/07/20 07:49:24;;;;;;;5.00;3.72;;;;;;;-145.06;100.00;60892.56;6067132;22;20007;-91
2022/07/20 07:52:03;;;;;;;5.05;3.75;;;;;;;-145.06;100.00;60892.56;6067839;22;20006;-92
2022/07/20 07:54:42;;;;;;;5.13;3.30;;;;;;;-145.06;100.00;60892.56;6068045;22;20441;-90
2022/07/20 07:57:21;;;;;;;5.22;3.50;;;;;;;-145.06;100.00;60892.56;6067585;22;20011;-89
2022/07/20 08:00:00;;;;;;;4.07;3.20;;;;;;;-145.06;100.00;60892.56;6067886;22;20078;-90
2022/07/20 08:02:39;;;;;;;4.10;3.10;;;;;;;-145.06;100.00;60892.56;6068938;22;20007;-91
2022/07/20 08:05:19;;;;;;;4.38;3.20;;;;;;;-145.06;100.00;60892.56;6067868;22;20212;-91
2022/07/20 08:08:03;;;;;;;;;;;;;;;-145.06;100.00;60892.56;6068702;22;20143;-91
2022/07/20 08:10:43;;;;;;;4.10;3.15;;;;;;;-145.06;100.00;60892.56;6067794;22;19902;-92
2022/07/20 08:13:23;;;;;;;5.88;3.05;;;;;;;-145.06;100.00;60892.56;6068026;22;20007;-91
2022/07/20 08:16:02;;;;;;;3.35;2.90;;;;;;;-145.06;100.00;60892.56;6067130;22;20003;-91
2022/07/20 08:18:41;;;;;;;2.67;2.22;;;;;;;-145.06;100.00;60892.56;6067505;22;20030;-92
2022/07/20 08:21:20;;;;;;;2.70;2.50;;;;;;;-145.06;100.00;60892.56;6067481;22;20003;-92
2022/07/20 08:23:59;;;;;;;2.95;2.42;;;;;;;-145.06;100.00;60892.56;6066598;22;20011;-91
2022/07/20 08:26:41;;;;;;;3.85;2.72;;;;;;;-145.06;100.00;60892.56;6065109;22;20003;-90
2022/07/20 08:29:40;;;;;;;4.22;3.10;;;;;;;-145.06;100.00;60892.56;6066306;22;20011;-90
2022/07/20 08:32:22;;;;;;;3.53;2.65;;;;;;;-145.06;100.00;60892.56;6064258;22;19995;-90
2022/07/20 08:35:01;;;;;;;5.65;2.92;;;;;;;-145.06;100.00;60892.56;6066530;22;20003;-91
2022/07/20 08:37:43;;;;;;;4.22;3.17;;;;;;;-145.06;100.00;60892.56;6067341;22;20434;-91
2022/07/20 08:40:22;;;;;;;3.92;2.85;;;;;;;-145.06;100.00;60892.56;6066325;22;20003;-91
2022/07/20 08:43:02;;;;;;;3.58;3.10;;;;;;;26.17;100.00;60892.56;6064617;22;20011;-89
2022/07/20 08:45:42;;;;;;;3.63;2.70;;;;;;;-145.06;100.00;60892.56;6066150;22;20311;-90
2022/07/20 08:48:22;;;;;;;4.50;3.03;;;;;;;-145.06;100.00;60892.56;6065876;22;20007;-90
2022/07/20 08:51:02;;;;;;;4.32;2.90;;;;;;;-145.06;100.00;60892.56;6064297;22;20003;-91
2022/07/20 08:53:41;;;;;;;3.75;2.83;;;;;;;-145.06;100.00;60892.56;6066744;22;20007;-92
2022/07/20 08:56:20;;;;;;;3.70;2.53;;;;;;;187.52;100.00;60892.56;6065174;22;20011;-92
2022/07/20 08:59:00;;;;;;;4.32;2.50;;;;;;;-145.06;100.00;60892.56;6063894;22;20003;-90
2022/07/20 09:02:02;;;;;;;3.55;2.40;;;;;;;-145.06;100.00;60892.56;6064628;22;20074;-91
2022/07/20 09:04:57;;;;;;;4.38;2.65;;;;;;;-145.06;100.00;60892.56;6055352;22;20031;-90
2022/07/20 09:07:39;;;;;;;11.10;2.90;;;;;;;-145.06;100.00;60892.56;6061152;22;20003;-90
2022/07/20 09:10:21;;;;;;;4.80;2.45;;;;;;;-145.06;100.00;60892.56;6057100;22;19999;-91
2022/07/20 09:13:05;;;;;;;3.88;2.50;;;;;;;26.81;100.00;60892.56;6056566;22;20034;-91
2022/07/20 09:15:53;;;;;;;3.05;2.60;;;;;;;-145.06;100.00;60892.56;6056338;22;20622;-90
2022/07/20 09:18:33;;;;;;;4.07;2.60;;;;;;;-145.06;100.00;60892.56;6054456;22;20031;-89
2022/07/20 09:21:12;;;;;;;4.88;2.90;;;;;;;-145.06;100.00;60892.56;6054047;22;20043;-90
2022/07/20 09:23:54;;;;;;;4.22;2.80;;;;;;;-145.06;100.00;60892.56;6053150;22;20501;-90
2022/07/20 09:26:34;;;;;;;2.65;2.30;;;;;;;-145.06;100.00;60892.56;6086899;22;20007;-89
2022/07/20 09:29:14;;;;;;;4.43;3.10;;;;;;;-145.06;100.00;60892.56;6056842;22;20078;-90
2022/07/20 09:32:03;;;;;;;3.42;2.53;;;;;;;-145.06;100.00;60892.56;6065013;22;20000;-91
2022/07/20 09:34:42;;;;;;;3.20;2.50;;;;;;;27.22;100.00;60892.56;6096268;22;20433;-89
2022/07/20 09:37:20;;;;;;;4.20;2.63;;;;;;;-145.06;100.00;60892.56;6064015;22;20007;-90
2022/07/20 09:40:01;;;;;;;3.22;2.53;;;;;;;-145.06;100.00;60892.56;6063605;22;20007;-89
2022/07/20 09:42:42;;;;;;;4.82;3.15;;;;;;;-145.06;100.00;60892.56;6062845;22;20007;-89
2022/07/20 09:45:23;;;;;;;2.92;2.30;;;;;;;-145.06;100.00;60892.56;6055773;22;20011;-91
2022/07/20 09:48:03;;;;;;;3.72;2.40;;;;;;;-145.06;100.00;60892.56;6057314;22;20373;-90
2022/07/20 09:50:44;;;;;;;3.47;2.53;;;;;;;-145.06;100.00;60892.56;6067729;22;20003;-91
2022/07/20 09:53:23;;;;;;;3.22;2.40;;;;;;;-145.06;100.00;60892.56;6078368;22;20007;-92
2022/07/20 09:56:03;;;;;;;5.00;2.85;;;;;;;-145.06;100.00;60892.56;6065084;22;20047;-90
2022/07/20 09:58:45;;;;;;;4.05;2.83;;;;;;;-145.06;100.00;60892.56;6054121;22;20007;-89
2022/07/20 10:01:28;;;;;;;3.58;3.00;;;;;;;-145.06;100.00;60892.56;6088436;22;20042;-91
2022/07/20 10:04:10;;;;;;;5.00;3.22;;;;;;;-145.06;100.00;60892.56;6088996;22;20109;-90
2022/07/20 10:06:52;;;;;;;4.60;3.10;;;;;;;-145.06;100.00;60892.56;6054575;22;20334;-90
2022/07/20 10:09:32;;;;;;;3.97;2.70;;;;;;;-145.06;100.00;60892.56;6087110;22;20039;-90
2022/07/20 10:12:11;;;;;;;4.78;2.30;;;;;;;-145.06;100.00;60892.56;6055178;22;20303;-90
2022/07/20 10:14:51;;;;;;;2.60;2.13;;;;;;;-145.06;100.00;60892.56;6053999;22;20011;-91
2022/07/20 10:17:32;;;;;;;3.10;2.17;;;;;;;-145.06;100.00;60892.56;6055593;22;20007;-90
2022/07/20 10:20:31;;;;;;;2.70;2.10;;;;;;;-145.06;100.00;60892.56;6088262;22;20035;-90
2022/07/20 10:23:24;;;;;;;2.88;2.28;;;;;;;-145.06;100.00;60892.56;6055294;22;20453;-90
2022/07/20 10:26:03;;;;;;;2.72;1.95;;;;;;;-145.06;100.00;60892.56;6056455;22;20031;-90
2022/07/20 10:28:42;;;;;;;2.88;2.10;;;;;;;-145.06;100.00;60892.56;6056107;22;20354;-91
2022/07/20 10:31:21;;;;;;;3.67;2.55;;;;;;;-145.06;100.00;60892.56;6054867;22;20000;-91
2022/07/20 10:34:01;;;;;;;3.20;2.45;;;;;;;-145.06;100.00;60892.56;6056598;22;20509;-91
2022/07/20 10:36:43;;;;;;;2.33;1.73;;;;;;;-145.06;100.00;60892.56;6055348;22;20011;-90
2022/07/20 10:39:45;;;;;;;2.85;1.73;;;;;;;-145.06;100.00;60892.56;6056313;22;20007;-90
2022/07/20 10:42:33;;;;;;;3.88;2.22;;;;;;;-145.06;100.00;60892.56;6056296;22;20003;-91
2022/07/20 10:45:19;;;;;;;2.13;1.77;;;;;;;-145.06;100.00;60892.56;6055455;22;20007;-91
2022/07/20 10:47:58;;;;;;;2.55;1.80;;;;;;;-145.06;100.00;60892.56;6053606;22;20007;-89
2022/07/20 10:50:41;;;;;;;2.65;1.67;;;;;;;-145.06;100.00;60892.56;6052748;22;20078;-90
2022/07/20 10:53:26;;;;;;;3.38;1.52;;;;;;;-145.06;100.00;60892.56;6054610;22;20465;-90
2022/07/20 10:56:07;;;;;;;1.85;1.60;;;;;;;-145.06;100.00;60892.56;6055720;22;20548;-92
2022/07/20 10:58:46;;;;;;;2.42;1.60;;;;;;;-145.06;100.00;60892.56;6055779;22;20011;-91
2022/07/20 11:01:25;;;;;;;1.80;1.50;;;;;;;-145.06;100.00;60892.56;6064616;22;20082;-90
2022/07/20 11:04:11;;;;;;;2.28;1.80;;;;;;;-145.06;100.00;60892.56;6063117;22;20007;-91
2022/07/20 11:06:50;;;;;;;1.80;1.40;;;;;;;-145.06;100.00;60892.56;6063491;22;20003;-91
2022/07/20 11:09:32;;;;;;;2.50;1.63;;;;;;;-145.06;100.00;60892.56;6063876;22;20011;-91
2022/07/20 11:12:11;;;;;;;1.80;1.23;;;;;;;-145.06;100.00;60892.56;6063695;22;19995;-90
2022/07/20 11:14:54;;;;;;;1.50;1.38;;;;;;;-145.06;100.00;60892.56;6067348;22;20007;-91
2022/07/20 11:17:34;;;;;;;2.08;1.40;;;;;;;-145.06;100.00;60892.56;6066905;22;20007;-91
2022/07/20 11:20:17;;;;;;;1.67;1.30;;;;;;;-145.06;100.00;60892.56;6066736;22;20007;-90
2022/07/20 11:22:57;;;;;;;1.83;1.50;;;;;;;-145.06;100.00;60892.56;6064291;22;20447;-91
2022/07/20 11:40:05;;;;;;;2.08;1.63;;;;;;;-145.06;100.00;60892.56;5977218;23;20088;-90
2022/07/20 12:20:20;;;;;;;2.53;1.70;;;;;;;-145.06;100.00;60892.56;5918068;23;20093;-87
2022/07/20 12:27:50;;;;;;;2.65;1.90;;;;;;;-145.06;100.00;60892.56;5917584;23;20006;-90
2022/07/20 13:04:40;;;;;;;2.03;1.50;;;;;;;-145.06;100.00;60892.56;6088012;22;20014;-87
2022/07/20 13:07:47;;;;;;;1.85;1.50;;;;;;;-145.06;100.00;60892.56;6096489;22;20007;-90
2022/07/20 13:15:14;;;;;;;;;;;;;;;;;;;;;
2022/07/20 13:21:43;;;;;;;1.40;1.30;;;;;;;-145.06;100.00;60892.56;6035157;22;20343;-90
2022/07/20 13:24:23;;;;;;;0.90;0.80;;;;;;;-145.06;100.00;60892.56;6031947;22;20078;-92
2022/07/20 13:27:10;;;;;;;2.35;1.35;;;;;;;-145.06;100.00;60892.56;6033599;22;20007;-90
2022/07/20 13:36:27;;;;;;;1.30;1.13;;;;;;;-145.06;100.00;60892.56;6100343;22;19921;-88
2022/07/20 13:42:39;;;;;;;1.15;0.98;;;;;;;-145.06;100.00;60892.56;6095780;22;19999;-90
2022/07/20 14:16:52;;;;;;;0.98;0.80;;;;;;;-145.06;100.00;60892.56;6094499;22;20054;-89
2022/07/20 14:26:27;;;;;;;1.17;0.88;;;;;;;-145.06;100.00;60892.56;6065554;22;20016;-88
2022/07/20 14:29:09;;;;;;;2.40;0.82;;;;;;;-145.06;100.00;60892.56;6065854;22;20587;-89
2022/07/20 14:31:48;;;;;;;0.85;0.80;;;;;;;-145.06;100.00;60892.56;6032164;22;20000;-89
2022/07/20 14:34:28;;;;;;;1.48;0.90;;;;;;;-145.06;100.00;60892.56;6031842;22;20635;-88
2022/07/20 14:37:09;;;;;;;1.05;0.80;;;;;;;-145.06;100.00;60892.56;6065801;22;20004;-91
2022/07/20 14:39:48;;;;;;;0.80;0.70;;;;;;;-145.06;100.00;60892.56;6033005;22;20008;-90
2022/07/20 14:42:27;;;;;;;0.85;0.60;;;;;;;-145.06;100.00;60892.56;6033350;22;20007;-88
2022/07/20 14:45:18;;;;;;;1.27;0.93;;;;;;;-145.06;100.00;60892.56;6033752;22;20119;-90
2022/07/20 14:48:00;;;;;;;1.38;0.75;;;;;;;-145.06;100.00;60892.56;6034767;22;20261;-90
2022/07/20 14:50:42;;;;;;;2.45;0.90;;;;;;;-145.06;100.00;60892.56;6034755;22;19999;-88
2022/07/20 14:53:21;;;;;;;1.13;1.02;;;;;;;-145.06;100.00;60892.56;6033440;22;20497;-88